Buoy 43536

sailwx.info

Track history (hours):
 
Tides and Currents Weather Stations Pressure Air Temp Water Temp Dewpoint Dewpoint Depression Visibility Wind Speed Wind Dir Waves Ship Positions

Drifting buoy 43536

Last reported at 2018-Feb-16 09:00 UTC. Time now 2018-Jul-16 10:02 UTC.
Position N 16°49' W 170°09'.
Warning: this ship's position is months out of date.

Water temperature 25.5 ° C

Date/timePositionNaut miles runAvg speedWind from/ knotsBaromVisibWave heightAir tempDewpointWater temp
2018-Feb-16 09:00N 16°49' W 170°09'0 0.0 25.5
2018-Feb-16 08:00N 16°49' W 170°09'4 0.7 25.5
2018-Feb-16 03:00N 16°52' W 170°06'0 0.0 25.7
2018-Feb-16 02:00N 16°52' W 170°06'4 4.2 25.7
2018-Feb-16 01:00N 16°55' W 170°03'3 0.7 25.7
2018-Feb-15 21:00N 16°55' W 170°00'0 0.0 25.5
2018-Feb-15 20:00N 16°55' W 170°00'0 0.0 25.5
2018-Feb-15 14:00N 16°55' W 170°00'3 0.6 25.5
2018-Feb-15 08:00N 16°58' W 169°58'0 0.0 25.5
2018-Feb-15 06:00N 16°58' W 169°58'0 0.0 25.6
2018-Feb-15 05:00N 16°58' W 169°58'1 0.6 25.6
2018-Feb-15 04:00N 16°58' W 169°57'0 0.0 25.6
2018-Feb-15 03:00N 16°58' W 169°57'0 0.0 25.6
2018-Feb-15 02:00N 16°58' W 169°57'3 2.9 25.6
2018-Feb-15 01:00N 16°58' W 169°54'1 0.1 25.6
2018-Feb-14 18:00N 16°57' W 169°53'1 0.4 25.5
2018-Feb-14 16:00N 16°56' W 169°53'0 0.0 25.5
2018-Feb-14 14:00N 16°56' W 169°53'4 0.7 25.5
2018-Feb-14 08:00N 16°55' W 169°49'1 1.3 25.5
2018-Feb-14 07:00N 16°54' W 169°47'0 0.0 25.5
2018-Feb-14 05:00N 16°54' W 169°47'9 4.3 25.5
2018-Feb-14 03:00N 16°55' W 169°38'0 0.0 25.6
2018-Feb-14 01:00N 16°55' W 169°38'0 0.0 25.6
2018-Feb-13 19:00N 16°55' W 169°38'1 1.3 25.5
2018-Feb-13 18:00N 16°55' W 169°37'0 0.0 25.5
2018-Feb-13 17:00N 16°55' W 169°37'0 0.0 25.5
2018-Feb-13 16:00N 16°55' W 169°37'2 0.9 25.5
2018-Feb-13 14:00N 16°54' W 169°35'10 1.0 25.6
2018-Feb-13 04:00N 16°52' W 169°25'2 1.7 25.6
2018-Feb-13 03:00N 16°52' W 169°23'0 0.0 25.6
2018-Feb-13 02:00N 16°52' W 169°23'0 0.0 25.7
2018-Feb-13 01:00N 16°52' W 169°23'4 1.0 25.6
2018-Feb-12 21:00N 16°51' W 169°19'0 0.0 25.6
2018-Feb-12 20:00N 16°51' W 169°19'0 0.0 25.5
2018-Feb-12 19:00N 16°51' W 169°19'1 0.8 25.5
2018-Feb-12 18:00N 16°50' W 169°18'2 1.8 25.5
2018-Feb-12 17:00N 16°50' W 169°16'0 0.0 25.5
2018-Feb-12 14:00N 16°50' W 169°16'10 0.8 25.6
2018-Feb-12 02:00N 16°47' W 169°06'0 0.0 25.7
2018-Feb-12 01:00N 16°47' W 169°06'3 0.9 25.7
2018-Feb-11 21:00N 16°47' W 169°02'1 0.8 25.6
2018-Feb-11 20:00N 16°47' W 169°02'0 0.0 25.6
2018-Feb-11 19:00N 16°47' W 169°02'3 2.9 25.6
2018-Feb-11 18:00N 16°46' W 168°59'0 0.0 25.6
2018-Feb-11 17:00N 16°46' W 168°59'0 0.0 25.6
2018-Feb-11 16:00N 16°46' W 168°59'2 1.7 25.6
2018-Feb-11 15:00N 16°46' W 168°57'0 0.0 25.6
2018-Feb-11 14:00N 16°46' W 168°57'5 1.0 25.6
2018-Feb-11 09:00N 16°45' W 168°52'0 0.0 25.6
2018-Feb-11 08:00N 16°45' W 168°52'5 1.6 25.6
2018-Feb-11 05:00N 16°44' W 168°47'0 0.0 25.7
2018-Feb-11 04:00N 16°44' W 168°47'0 0.0 25.8
2018-Feb-11 02:00N 16°44' W 168°47'6 1.1 25.8
2018-Feb-10 20:00N 16°44' W 168°41'2 1.7 25.6
2018-Feb-10 19:00N 16°44' W 168°39'0 0.0 25.6
2018-Feb-10 18:00N 16°44' W 168°39'1 1.1 25.5
2018-Feb-10 17:00N 16°44' W 168°38'1 0.6 25.6
2018-Feb-10 16:00N 16°44' W 168°37'5 5.2 25.6
2018-Feb-10 15:00N 16°44' W 168°32'5 5.2 25.6
2018-Feb-10 14:00N 16°44' W 168°37'9 1.2 25.6
2018-Feb-10 07:00N 16°44' W 168°28'0 0.0 25.6
2018-Feb-10 05:00N 16°44' W 168°28'0 0.0 25.6
2018-Feb-10 04:00N 16°44' W 168°28'0 0.0 25.6
2018-Feb-10 03:00N 16°44' W 168°28'0 0.0 25.7
2018-Feb-10 02:00N 16°44' W 168°28'6 1.0 25.7
2018-Feb-09 20:00N 16°44' W 168°22'1 0.6 25.6
2018-Feb-09 18:00N 16°44' W 168°21'0 0.0 25.6
2018-Feb-09 17:00N 16°44' W 168°21'1 0.6 25.6
2018-Feb-09 16:00N 16°44' W 168°20'1 0.6 25.6
2018-Feb-09 15:00N 16°44' W 168°20'0 0.0 25.6
2018-Feb-09 14:00N 16°44' W 168°20'5 0.9 25.6
2018-Feb-09 08:00N 16°43' W 168°14'2 2.4 25.6
2018-Feb-09 07:00N 16°44' W 168°12'1 0.6 25.6
2018-Feb-09 06:00N 16°44' W 168°11'1 0.6 25.6
2018-Feb-09 05:00N 16°44' W 168°11'1 0.8 25.7
2018-Feb-09 04:00N 16°43' W 168°10'2 1.8 25.7
2018-Feb-09 03:00N 16°44' W 168°08'4 0.6 25.7
2018-Feb-08 21:00N 16°46' W 168°05'0 0.0 25.6
2018-Feb-08 20:00N 16°46' W 168°05'2 0.6 25.6
2018-Feb-08 17:00N 16°46' W 168°03'1 0.6 25.6
2018-Feb-08 16:00N 16°46' W 168°02'0 0.0 25.6
2018-Feb-08 15:00N 16°46' W 168°02'4 0.6 25.6
2018-Feb-08 08:00N 16°46' W 167°58'0 0.0 25.7
2018-Feb-08 07:00N 16°46' W 167°58'1 1.1 25.7
2018-Feb-08 06:00N 16°46' W 167°57'1 0.6 25.7
2018-Feb-08 05:00N 16°46' W 167°56'2 1.8 25.7
2018-Feb-08 04:00N 16°46' W 167°55'0 0.0 25.8
2018-Feb-08 03:00N 16°46' W 167°55'0 0.0 25.9
2018-Feb-08 02:00N 16°46' W 167°55'6 0.8 25.9
2018-Feb-07 18:00N 16°49' W 167°49'1 0.6 25.6
2018-Feb-07 17:00N 16°49' W 167°48'1 1.1 25.6
2018-Feb-07 16:00N 16°49' W 167°47'0 0.0 25.6
2018-Feb-07 15:00N 16°49' W 167°47'0 0.0 25.6
2018-Feb-07 14:00N 16°49' W 167°47'0 0.0 25.6
2018-Feb-07 13:00N 16°49' W 167°47'4 1.0 25.6
2018-Feb-07 09:00N 16°49' W 167°43'1 0.6 25.7
2018-Feb-07 08:00N 16°50' W 167°43'2 2.1 25.7
2018-Feb-07 07:00N 16°51' W 167°41'0 0.0 25.7
2018-Feb-07 06:00N 16°51' W 167°41'1 0.6 25.7
2018-Feb-07 05:00N 16°52' W 167°41'1 0.8 25.8
2018-Feb-07 04:00N 16°52' W 167°40'0 0.0 25.8
2018-Feb-07 03:00N 16°52' W 167°40'0 0.0 25.9
2018-Feb-07 02:00N 16°52' W 167°40'1 0.3 25.9
2018-Feb-06 22:00N 16°53' W 167°39'1 1.3 25.8
2018-Feb-06 21:00N 16°52' W 167°38'0 0.0 25.7
2018-Feb-06 20:00N 16°52' W 167°38'1 1.1 25.6
2018-Feb-06 19:00N 16°52' W 167°37'0 0.0 25.6
2018-Feb-06 18:00N 16°52' W 167°37'0 0.0 25.6
2018-Feb-06 17:00N 16°52' W 167°37'1 0.8 25.6
2018-Feb-06 16:00N 16°53' W 167°36'0 0.0 25.6
2018-Feb-06 15:00N 16°53' W 167°36'0 0.0 25.6
2018-Feb-06 14:00N 16°53' W 167°36'0 0.0 25.6
2018-Feb-06 13:00N 16°53' W 167°36'4 1.0 25.6
2018-Feb-06 09:00N 16°52' W 167°32'   25.7
Track history (hours):
 
Tides and Currents Weather Stations Pressure Air Temp Water Temp Dewpoint Dewpoint Depression Visibility Wind Speed Wind Dir Waves Ship Positions

Drifting buoy 43536

Last reported at 2018-Feb-16 09:00 UTC. Time now 2018-Jul-16 10:02 UTC.
Position N 16°49' W 170°09'.
Warning: this ship's position is months out of date.

Water temperature 25.5 ° C

Date/timePositionNaut miles runAvg speedWind from/ knotsBaromVisibWave heightAir tempDewpointWater temp
2018-Feb-16 09:00N 16°49' W 170°09'0 0.0 25.5
2018-Feb-16 08:00N 16°49' W 170°09'4 0.7 25.5
2018-Feb-16 03:00N 16°52' W 170°06'0 0.0 25.7
2018-Feb-16 02:00N 16°52' W 170°06'4 4.2 25.7
2018-Feb-16 01:00N 16°55' W 170°03'3 0.7 25.7
2018-Feb-15 21:00N 16°55' W 170°00'0 0.0 25.5
2018-Feb-15 20:00N 16°55' W 170°00'0 0.0 25.5
2018-Feb-15 14:00N 16°55' W 170°00'3 0.6 25.5
2018-Feb-15 08:00N 16°58' W 169°58'0 0.0 25.5
2018-Feb-15 06:00N 16°58' W 169°58'0 0.0 25.6
2018-Feb-15 05:00N 16°58' W 169°58'1 0.6 25.6
2018-Feb-15 04:00N 16°58' W 169°57'0 0.0 25.6
2018-Feb-15 03:00N 16°58' W 169°57'0 0.0 25.6
2018-Feb-15 02:00N 16°58' W 169°57'3 2.9 25.6
2018-Feb-15 01:00N 16°58' W 169°54'1 0.1 25.6
2018-Feb-14 18:00N 16°57' W 169°53'1 0.4 25.5
2018-Feb-14 16:00N 16°56' W 169°53'0 0.0 25.5
2018-Feb-14 14:00N 16°56' W 169°53'4 0.7 25.5
2018-Feb-14 08:00N 16°55' W 169°49'1 1.3 25.5
2018-Feb-14 07:00N 16°54' W 169°47'0 0.0 25.5
2018-Feb-14 05:00N 16°54' W 169°47'9 4.3 25.5
2018-Feb-14 03:00N 16°55' W 169°38'0 0.0 25.6
2018-Feb-14 01:00N 16°55' W 169°38'0 0.0 25.6
2018-Feb-13 19:00N 16°55' W 169°38'1 1.3 25.5
2018-Feb-13 18:00N 16°55' W 169°37'0 0.0 25.5
2018-Feb-13 17:00N 16°55' W 169°37'0 0.0 25.5
2018-Feb-13 16:00N 16°55' W 169°37'2 0.9 25.5
2018-Feb-13 14:00N 16°54' W 169°35'10 1.0 25.6
2018-Feb-13 04:00N 16°52' W 169°25'2 1.7 25.6
2018-Feb-13 03:00N 16°52' W 169°23'0 0.0 25.6
2018-Feb-13 02:00N 16°52' W 169°23'0 0.0 25.7
2018-Feb-13 01:00N 16°52' W 169°23'4 1.0 25.6
2018-Feb-12 21:00N 16°51' W 169°19'0 0.0 25.6
2018-Feb-12 20:00N 16°51' W 169°19'0 0.0 25.5
2018-Feb-12 19:00N 16°51' W 169°19'1 0.8 25.5
2018-Feb-12 18:00N 16°50' W 169°18'2 1.8 25.5
2018-Feb-12 17:00N 16°50' W 169°16'0 0.0 25.5
2018-Feb-12 14:00N 16°50' W 169°16'10 0.8 25.6
2018-Feb-12 02:00N 16°47' W 169°06'0 0.0 25.7
2018-Feb-12 01:00N 16°47' W 169°06'3 0.9 25.7
2018-Feb-11 21:00N 16°47' W 169°02'1 0.8 25.6
2018-Feb-11 20:00N 16°47' W 169°02'0 0.0 25.6
2018-Feb-11 19:00N 16°47' W 169°02'3 2.9 25.6
2018-Feb-11 18:00N 16°46' W 168°59'0 0.0 25.6
2018-Feb-11 17:00N 16°46' W 168°59'0 0.0 25.6
2018-Feb-11 16:00N 16°46' W 168°59'2 1.7 25.6
2018-Feb-11 15:00N 16°46' W 168°57'0 0.0 25.6
2018-Feb-11 14:00N 16°46' W 168°57'5 1.0 25.6
2018-Feb-11 09:00N 16°45' W 168°52'0 0.0 25.6
2018-Feb-11 08:00N 16°45' W 168°52'5 1.6 25.6
2018-Feb-11 05:00N 16°44' W 168°47'0 0.0 25.7
2018-Feb-11 04:00N 16°44' W 168°47'0 0.0 25.8
2018-Feb-11 02:00N 16°44' W 168°47'6 1.1 25.8
2018-Feb-10 20:00N 16°44' W 168°41'2 1.7 25.6
2018-Feb-10 19:00N 16°44' W 168°39'0 0.0 25.6
2018-Feb-10 18:00N 16°44' W 168°39'1 1.1 25.5
2018-Feb-10 17:00N 16°44' W 168°38'1 0.6 25.6
2018-Feb-10 16:00N 16°44' W 168°37'5 5.2 25.6
2018-Feb-10 15:00N 16°44' W 168°32'5 5.2 25.6
2018-Feb-10 14:00N 16°44' W 168°37'9 1.2 25.6
2018-Feb-10 07:00N 16°44' W 168°28'0 0.0 25.6
2018-Feb-10 05:00N 16°44' W 168°28'0 0.0 25.6
2018-Feb-10 04:00N 16°44' W 168°28'0 0.0 25.6
2018-Feb-10 03:00N 16°44' W 168°28'0 0.0 25.7
2018-Feb-10 02:00N 16°44' W 168°28'6 1.0 25.7
2018-Feb-09 20:00N 16°44' W 168°22'1 0.6 25.6
2018-Feb-09 18:00N 16°44' W 168°21'0 0.0 25.6
2018-Feb-09 17:00N 16°44' W 168°21'1 0.6 25.6
2018-Feb-09 16:00N 16°44' W 168°20'1 0.6 25.6
2018-Feb-09 15:00N 16°44' W 168°20'0 0.0 25.6
2018-Feb-09 14:00N 16°44' W 168°20'5 0.9 25.6
2018-Feb-09 08:00N 16°43' W 168°14'2 2.4 25.6
2018-Feb-09 07:00N 16°44' W 168°12'1 0.6 25.6
2018-Feb-09 06:00N 16°44' W 168°11'1 0.6 25.6
2018-Feb-09 05:00N 16°44' W 168°11'1 0.8 25.7
2018-Feb-09 04:00N 16°43' W 168°10'2 1.8 25.7
2018-Feb-09 03:00N 16°44' W 168°08'4 0.6 25.7
2018-Feb-08 21:00N 16°46' W 168°05'0 0.0 25.6
2018-Feb-08 20:00N 16°46' W 168°05'2 0.6 25.6
2018-Feb-08 17:00N 16°46' W 168°03'1 0.6 25.6
2018-Feb-08 16:00N 16°46' W 168°02'0 0.0 25.6
2018-Feb-08 15:00N 16°46' W 168°02'4 0.6 25.6
2018-Feb-08 08:00N 16°46' W 167°58'0 0.0 25.7
2018-Feb-08 07:00N 16°46' W 167°58'1 1.1 25.7
2018-Feb-08 06:00N 16°46' W 167°57'1 0.6 25.7
2018-Feb-08 05:00N 16°46' W 167°56'2 1.8 25.7
2018-Feb-08 04:00N 16°46' W 167°55'0 0.0 25.8
2018-Feb-08 03:00N 16°46' W 167°55'0 0.0 25.9
2018-Feb-08 02:00N 16°46' W 167°55'6 0.8 25.9
2018-Feb-07 18:00N 16°49' W 167°49'1 0.6 25.6
2018-Feb-07 17:00N 16°49' W 167°48'1 1.1 25.6
2018-Feb-07 16:00N 16°49' W 167°47'0 0.0 25.6
2018-Feb-07 15:00N 16°49' W 167°47'0 0.0 25.6
2018-Feb-07 14:00N 16°49' W 167°47'0 0.0 25.6
2018-Feb-07 13:00N 16°49' W 167°47'4 1.0 25.6
2018-Feb-07 09:00N 16°49' W 167°43'1 0.6 25.7
2018-Feb-07 08:00N 16°50' W 167°43'2 2.1 25.7
2018-Feb-07 07:00N 16°51' W 167°41'0 0.0 25.7
2018-Feb-07 06:00N 16°51' W 167°41'1 0.6 25.7
2018-Feb-07 05:00N 16°52' W 167°41'1 0.8 25.8
2018-Feb-07 04:00N 16°52' W 167°40'0 0.0 25.8
2018-Feb-07 03:00N 16°52' W 167°40'0 0.0 25.9
2018-Feb-07 02:00N 16°52' W 167°40'1 0.3 25.9
2018-Feb-06 22:00N 16°53' W 167°39'1 1.3 25.8
2018-Feb-06 21:00N 16°52' W 167°38'0 0.0 25.7
2018-Feb-06 20:00N 16°52' W 167°38'1 1.1 25.6
2018-Feb-06 19:00N 16°52' W 167°37'0 0.0 25.6
2018-Feb-06 18:00N 16°52' W 167°37'0 0.0 25.6
2018-Feb-06 17:00N 16°52' W 167°37'1 0.8 25.6
2018-Feb-06 16:00N 16°53' W 167°36'0 0.0 25.6
2018-Feb-06 15:00N 16°53' W 167°36'0 0.0 25.6
2018-Feb-06 14:00N 16°53' W 167°36'0 0.0 25.6
2018-Feb-06 13:00N 16°53' W 167°36'4 1.0 25.6
2018-Feb-06 09:00N 16°52' W 167°32'   25.7

Dump ship's entire track history